EDW57P LEPA-LSZH
Flight info
| Callsign | EDW57P |
|---|---|
| Flight time | 1h 20m |
| Altitude | 34000 |
| Route | MEROS DCT LAPIT DCT CHELY DCT LUMAS DCT MAXIR DCT LUSOL DCT BODRU DCT OKTET DCT IRMAR DCT KINES DCT VANAS DCT MOBLO DCT LAMUR DCT KORED N871 BERSU |
| Aircraft | A320/M-SDE2E3FGHIJ1RWXY/LB1 |
Departure
| Time | 2026-05-06 16:31 |
|---|---|
| Airport | Palma de Mallorca Airport (LEPA) |
Arrival
| Time | 2026-05-06 17:51 |
|---|---|
| Airport | Zürich Airport (LSZH) |
| Time | Latitude | Longitude | Altitude | Speed | Heading |
|---|---|---|---|---|---|
| 2026-05-06 15:58 | 39.55029 | 2.73491 | 30 ft | 0 kts | 163° |
| 2026-05-06 16:16 | 39.55036 | 2.73488 | 30 ft | 2 kts | 163° |
| 2026-05-06 16:16 | 39.55053 | 2.73482 | 30 ft | 2 kts | 163° |
| 2026-05-06 16:17 | 39.55067 | 2.73471 | 30 ft | 2 kts | 98° |
| 2026-05-06 16:17 | 39.55068 | 2.73462 | 30 ft | 0 kts | 72° |
| 2026-05-06 16:18 | 39.55068 | 2.73461 | 30 ft | 0 kts | 72° |
| 2026-05-06 16:19 | 39.55080 | 2.73485 | 30 ft | 6 kts | 54° |
| 2026-05-06 16:19 | 39.55104 | 2.73531 | 30 ft | 7 kts | 58° |
| 2026-05-06 16:20 | 39.55129 | 2.73584 | 30 ft | 7 kts | 59° |
| 2026-05-06 16:20 | 39.55153 | 2.73636 | 30 ft | 8 kts | 58° |
| 2026-05-06 16:20 | 39.55183 | 2.73705 | 30 ft | 9 kts | 74° |
| 2026-05-06 16:20 | 39.55165 | 2.73763 | 30 ft | 6 kts | 106° |
| 2026-05-06 16:21 | 39.55183 | 2.73814 | 30 ft | 5 kts | 57° |
| 2026-05-06 16:21 | 39.55177 | 2.73849 | 30 ft | 4 kts | 127° |
| 2026-05-06 16:21 | 39.55144 | 2.73877 | 30 ft | 8 kts | 148° |
| 2026-05-06 16:21 | 39.55096 | 2.73916 | 30 ft | 7 kts | 148° |
| 2026-05-06 16:22 | 39.55047 | 2.73954 | 30 ft | 10 kts | 148° |
| 2026-05-06 16:22 | 39.54990 | 2.73999 | 30 ft | 9 kts | 148° |
| 2026-05-06 16:22 | 39.54936 | 2.74042 | 30 ft | 10 kts | 149° |
| 2026-05-06 16:22 | 39.54881 | 2.74085 | 30 ft | 8 kts | 148° |
| 2026-05-06 16:23 | 39.54837 | 2.74120 | 30 ft | 7 kts | 149° |
| 2026-05-06 16:23 | 39.54797 | 2.74125 | 30 ft | 6 kts | 197° |
| 2026-05-06 16:23 | 39.54765 | 2.74072 | 30 ft | 8 kts | 239° |
| 2026-05-06 16:23 | 39.54739 | 2.74017 | 30 ft | 7 kts | 239° |
| 2026-05-06 16:24 | 39.54709 | 2.73954 | 30 ft | 10 kts | 238° |
| 2026-05-06 16:24 | 39.54677 | 2.73887 | 30 ft | 8 kts | 238° |
| 2026-05-06 16:24 | 39.54648 | 2.73826 | 30 ft | 8 kts | 238° |
| 2026-05-06 16:24 | 39.54615 | 2.73754 | 30 ft | 9 kts | 238° |
| 2026-05-06 16:25 | 39.54583 | 2.73688 | 30 ft | 8 kts | 238° |
| 2026-05-06 16:25 | 39.54550 | 2.73619 | 30 ft | 9 kts | 238° |
| 2026-05-06 16:25 | 39.54514 | 2.73542 | 30 ft | 9 kts | 238° |
| 2026-05-06 16:25 | 39.54483 | 2.73475 | 30 ft | 8 kts | 238° |
| 2026-05-06 16:26 | 39.54456 | 2.73419 | 30 ft | 7 kts | 238° |
| 2026-05-06 16:26 | 39.54433 | 2.73370 | 30 ft | 9 kts | 238° |
| 2026-05-06 16:26 | 39.54400 | 2.73299 | 30 ft | 9 kts | 238° |
| 2026-05-06 16:26 | 39.54370 | 2.73235 | 30 ft | 7 kts | 238° |
| 2026-05-06 16:27 | 39.54345 | 2.73183 | 30 ft | 6 kts | 238° |
| 2026-05-06 16:27 | 39.54320 | 2.73130 | 30 ft | 9 kts | 238° |
| 2026-05-06 16:27 | 39.54285 | 2.73067 | 30 ft | 8 kts | 221° |
| 2026-05-06 16:27 | 39.54234 | 2.73069 | 30 ft | 9 kts | 146° |
| 2026-05-06 16:28 | 39.54219 | 2.73151 | 30 ft | 11 kts | 91° |
| 2026-05-06 16:28 | 39.54212 | 2.73264 | 30 ft | 14 kts | 95° |
| 2026-05-06 16:28 | 39.54218 | 2.73363 | 30 ft | 3 kts | 60° |
| 2026-05-06 16:28 | 39.54219 | 2.73363 | 30 ft | 0 kts | 60° |
| 2026-05-06 16:30 | 39.54301 | 2.73542 | 30 ft | 58 kts | 58° |
| 2026-05-06 16:30 | 39.54628 | 2.74232 | 30 ft | 119 kts | 58° |
| 2026-05-06 16:31 | 39.55150 | 2.75328 | 36 ft | 165 kts | 57° |
| 2026-05-06 16:31 | 39.55774 | 2.76638 | 499 ft | 173 kts | 58° |
| 2026-05-06 16:31 | 39.56421 | 2.77991 | 1111 ft | 180 kts | 58° |
| 2026-05-06 16:31 | 39.57093 | 2.79410 | 1590 ft | 193 kts | 60° |
| 2026-05-06 16:32 | 39.57802 | 2.80994 | 1903 ft | 212 kts | 60° |
| 2026-05-06 16:32 | 39.58550 | 2.82679 | 2585 ft | 216 kts | 60° |
| 2026-05-06 16:32 | 39.59308 | 2.84375 | 3331 ft | 220 kts | 60° |
| 2026-05-06 16:32 | 39.60085 | 2.86101 | 4032 ft | 223 kts | 59° |
| 2026-05-06 16:33 | 39.60878 | 2.87856 | 4738 ft | 227 kts | 59° |
| 2026-05-06 16:33 | 39.61692 | 2.89644 | 5401 ft | 232 kts | 58° |
| 2026-05-06 16:33 | 39.62522 | 2.91475 | 5975 ft | 244 kts | 59° |
| 2026-05-06 16:34 | 39.64336 | 2.95648 | 6812 ft | 281 kts | 60° |
| 2026-05-06 16:34 | 39.65301 | 2.97890 | 7527 ft | 286 kts | 60° |
| 2026-05-06 16:34 | 39.66279 | 3.00159 | 8300 ft | 291 kts | 60° |
| 2026-05-06 16:34 | 39.67273 | 3.02467 | 9074 ft | 295 kts | 60° |
| 2026-05-06 16:35 | 39.68281 | 3.04804 | 9830 ft | 299 kts | 60° |
| 2026-05-06 16:35 | 39.69317 | 3.07205 | 10294 ft | 314 kts | 60° |
| 2026-05-06 16:35 | 39.70423 | 3.09763 | 10493 ft | 337 kts | 60° |
| 2026-05-06 16:35 | 39.71836 | 3.12281 | 10751 ft | 353 kts | 42° |
| 2026-05-06 16:36 | 39.73855 | 3.14109 | 11293 ft | 357 kts | 28° |
| 2026-05-06 16:36 | 39.76028 | 3.15730 | 11924 ft | 362 kts | 27° |
| 2026-05-06 16:36 | 39.78237 | 3.17364 | 12545 ft | 368 kts | 27° |
| 2026-05-06 16:36 | 39.80478 | 3.19015 | 13129 ft | 374 kts | 27° |
| 2026-05-06 16:37 | 39.82756 | 3.20694 | 13742 ft | 379 kts | 27° |
| 2026-05-06 16:37 | 39.85060 | 3.22397 | 14288 ft | 383 kts | 27° |
| 2026-05-06 16:37 | 39.87392 | 3.24126 | 14837 ft | 387 kts | 27° |
| 2026-05-06 16:37 | 39.89740 | 3.25873 | 15404 ft | 391 kts | 27° |
| 2026-05-06 16:38 | 39.92114 | 3.27642 | 15941 ft | 395 kts | 27° |
| 2026-05-06 16:38 | 39.94514 | 3.29427 | 16488 ft | 399 kts | 27° |
| 2026-05-06 16:38 | 39.96941 | 3.31227 | 17023 ft | 403 kts | 27° |
| 2026-05-06 16:38 | 39.99387 | 3.33044 | 17564 ft | 407 kts | 26° |
| 2026-05-06 16:39 | 40.01858 | 3.34884 | 18069 ft | 411 kts | 26° |
| 2026-05-06 16:39 | 40.04357 | 3.36748 | 18535 ft | 415 kts | 26° |
| 2026-05-06 16:39 | 40.06870 | 3.38627 | 18977 ft | 419 kts | 26° |
| 2026-05-06 16:39 | 40.09408 | 3.40524 | 19408 ft | 422 kts | 26° |
| 2026-05-06 16:40 | 40.11966 | 3.42437 | 19850 ft | 426 kts | 26° |
| 2026-05-06 16:40 | 40.14551 | 3.44369 | 20282 ft | 429 kts | 26° |
| 2026-05-06 16:40 | 40.17148 | 3.46312 | 20712 ft | 432 kts | 26° |
| 2026-05-06 16:40 | 40.19768 | 3.48277 | 21134 ft | 436 kts | 26° |
| 2026-05-06 16:41 | 40.22406 | 3.50259 | 21573 ft | 439 kts | 26° |
| 2026-05-06 16:41 | 40.25065 | 3.52259 | 21969 ft | 443 kts | 26° |
| 2026-05-06 16:41 | 40.27748 | 3.54281 | 22369 ft | 446 kts | 26° |
| 2026-05-06 16:41 | 40.30446 | 3.56314 | 22783 ft | 449 kts | 26° |
| 2026-05-06 16:42 | 40.33166 | 3.58363 | 23185 ft | 452 kts | 26° |
| 2026-05-06 16:42 | 40.35903 | 3.60425 | 23570 ft | 455 kts | 26° |
| 2026-05-06 16:42 | 40.38659 | 3.62505 | 23894 ft | 458 kts | 26° |
| 2026-05-06 16:42 | 40.41392 | 3.64570 | 24220 ft | 461 kts | 26° |
| 2026-05-06 16:43 | 40.44175 | 3.66674 | 24548 ft | 464 kts | 26° |
| 2026-05-06 16:43 | 40.46984 | 3.68794 | 24843 ft | 467 kts | 26° |
| 2026-05-06 16:43 | 40.49809 | 3.70927 | 25138 ft | 470 kts | 26° |
| 2026-05-06 16:43 | 40.52649 | 3.73082 | 25449 ft | 473 kts | 26° |
| 2026-05-06 16:44 | 40.55504 | 3.75254 | 25754 ft | 475 kts | 26° |
| 2026-05-06 16:44 | 40.58372 | 3.77436 | 26064 ft | 478 kts | 26° |
| 2026-05-06 16:44 | 40.61257 | 3.79631 | 26360 ft | 480 kts | 26° |
| 2026-05-06 16:44 | 40.64157 | 3.81839 | 26648 ft | 483 kts | 26° |
| 2026-05-06 16:45 | 40.67074 | 3.84061 | 26943 ft | 485 kts | 26° |
| 2026-05-06 16:45 | 40.69997 | 3.86292 | 27226 ft | 488 kts | 26° |
| 2026-05-06 16:45 | 40.72939 | 3.88543 | 27524 ft | 490 kts | 26° |
| 2026-05-06 16:45 | 40.75899 | 3.90805 | 27816 ft | 492 kts | 26° |
| 2026-05-06 16:46 | 40.78871 | 3.93079 | 28101 ft | 495 kts | 26° |
| 2026-05-06 16:46 | 40.81850 | 3.95362 | 28369 ft | 497 kts | 26° |
| 2026-05-06 16:46 | 40.84851 | 3.97662 | 28648 ft | 499 kts | 26° |
| 2026-05-06 16:46 | 40.87859 | 3.99970 | 28881 ft | 502 kts | 26° |
| 2026-05-06 16:47 | 40.90886 | 4.02294 | 29113 ft | 505 kts | 26° |
| 2026-05-06 16:47 | 40.93933 | 4.04637 | 29362 ft | 507 kts | 26° |
| 2026-05-06 16:47 | 40.96984 | 4.06991 | 29607 ft | 509 kts | 26° |
| 2026-05-06 16:47 | 41.00045 | 4.09356 | 29844 ft | 511 kts | 26° |
| 2026-05-06 16:48 | 41.03125 | 4.11739 | 30071 ft | 513 kts | 26° |
| 2026-05-06 16:48 | 41.06210 | 4.14128 | 30373 ft | 513 kts | 26° |
| 2026-05-06 16:48 | 41.09289 | 4.16513 | 30652 ft | 513 kts | 26° |
| 2026-05-06 16:48 | 41.12369 | 4.18896 | 30946 ft | 513 kts | 26° |
| 2026-05-06 16:49 | 41.15451 | 4.21281 | 31207 ft | 512 kts | 26° |
| 2026-05-06 16:49 | 41.18529 | 4.23667 | 31508 ft | 512 kts | 26° |
| 2026-05-06 16:49 | 41.21598 | 4.26052 | 31818 ft | 511 kts | 26° |
| 2026-05-06 16:49 | 41.24660 | 4.28435 | 32118 ft | 510 kts | 26° |
| 2026-05-06 16:50 | 41.27723 | 4.30821 | 32436 ft | 510 kts | 26° |
| 2026-05-06 16:50 | 41.30783 | 4.33208 | 32722 ft | 510 kts | 26° |
| 2026-05-06 16:50 | 41.33838 | 4.35597 | 33011 ft | 509 kts | 26° |
| 2026-05-06 16:50 | 41.35855 | 4.37176 | 33201 ft | 509 kts | 26° |
| 2026-05-06 16:51 | 41.39937 | 4.40374 | 33607 ft | 508 kts | 26° |
| 2026-05-06 16:51 | 41.42977 | 4.42758 | 33879 ft | 508 kts | 26° |
| 2026-05-06 16:51 | 41.46020 | 4.45145 | 33958 ft | 506 kts | 26° |
| 2026-05-06 16:52 | 41.52073 | 4.49892 | 33947 ft | 504 kts | 26° |
| 2026-05-06 16:52 | 41.58116 | 4.54640 | 33954 ft | 504 kts | 26° |
| 2026-05-06 16:53 | 41.64161 | 4.59403 | 33946 ft | 505 kts | 26° |
| 2026-05-06 16:53 | 41.70220 | 4.64187 | 33971 ft | 506 kts | 27° |
| 2026-05-06 16:54 | 41.76274 | 4.68988 | 33953 ft | 506 kts | 27° |
| 2026-05-06 16:54 | 41.82314 | 4.73839 | 33950 ft | 506 kts | 27° |
| 2026-05-06 16:55 | 41.87331 | 4.77895 | 33947 ft | 507 kts | 27° |
| 2026-05-06 16:55 | 41.93369 | 4.82775 | 33958 ft | 507 kts | 27° |
| 2026-05-06 16:56 | 41.99410 | 4.87654 | 33946 ft | 507 kts | 27° |
| 2026-05-06 16:56 | 42.05450 | 4.92553 | 33941 ft | 507 kts | 27° |
| 2026-05-06 16:57 | 42.11503 | 4.97453 | 33943 ft | 508 kts | 28° |
| 2026-05-06 16:57 | 42.17552 | 5.02369 | 33931 ft | 509 kts | 28° |
| 2026-05-06 16:58 | 42.23617 | 5.07316 | 33933 ft | 509 kts | 28° |
| 2026-05-06 16:58 | 42.29680 | 5.12268 | 33957 ft | 510 kts | 28° |
| 2026-05-06 16:59 | 42.35748 | 5.17229 | 33941 ft | 510 kts | 28° |
| 2026-05-06 16:59 | 42.41818 | 5.22210 | 33930 ft | 510 kts | 28° |
| 2026-05-06 17:00 | 42.47875 | 5.27208 | 33925 ft | 510 kts | 28° |
| 2026-05-06 17:00 | 42.53934 | 5.32210 | 33950 ft | 510 kts | 28° |
| 2026-05-06 17:01 | 42.59991 | 5.37216 | 33905 ft | 511 kts | 28° |
| 2026-05-06 17:01 | 42.66064 | 5.42240 | 33910 ft | 511 kts | 28° |
| 2026-05-06 17:02 | 42.72133 | 5.47273 | 33910 ft | 511 kts | 28° |
| 2026-05-06 17:02 | 42.78205 | 5.52329 | 33912 ft | 512 kts | 28° |
| 2026-05-06 17:03 | 42.84270 | 5.57398 | 33914 ft | 512 kts | 28° |
| 2026-05-06 17:03 | 42.90335 | 5.62471 | 33955 ft | 512 kts | 28° |
| 2026-05-06 17:04 | 42.96398 | 5.67539 | 33947 ft | 510 kts | 28° |
| 2026-05-06 17:04 | 43.02440 | 5.72603 | 33918 ft | 509 kts | 28° |
| 2026-05-06 17:05 | 43.08478 | 5.77690 | 33935 ft | 510 kts | 28° |
| 2026-05-06 17:05 | 43.14511 | 5.82791 | 33934 ft | 509 kts | 28° |
| 2026-05-06 17:06 | 43.20540 | 5.87896 | 33927 ft | 509 kts | 28° |
| 2026-05-06 17:06 | 43.26563 | 5.93005 | 33910 ft | 509 kts | 28° |
| 2026-05-06 17:07 | 43.32579 | 5.98116 | 33929 ft | 508 kts | 28° |
| 2026-05-06 17:07 | 43.38793 | 6.02599 | 33918 ft | 500 kts | 15° |
| 2026-05-06 17:08 | 43.45469 | 6.04649 | 33898 ft | 487 kts | 358° |
| 2026-05-06 17:08 | 43.52216 | 6.05311 | 33911 ft | 486 kts | 358° |
| 2026-05-06 17:09 | 43.58947 | 6.05998 | 33902 ft | 485 kts | 358° |
| 2026-05-06 17:09 | 43.65675 | 6.06681 | 33894 ft | 484 kts | 358° |
| 2026-05-06 17:10 | 43.72402 | 6.07365 | 33908 ft | 485 kts | 359° |
| 2026-05-06 17:10 | 43.79034 | 6.09307 | 33854 ft | 496 kts | 17° |
| 2026-05-06 17:11 | 43.85319 | 6.13413 | 33854 ft | 501 kts | 23° |
| 2026-05-06 17:11 | 43.91580 | 6.17684 | 33885 ft | 502 kts | 23° |
| 2026-05-06 17:12 | 43.97849 | 6.21955 | 33865 ft | 503 kts | 23° |
| 2026-05-06 17:12 | 44.04135 | 6.26254 | 33867 ft | 504 kts | 23° |
| 2026-05-06 17:13 | 44.10416 | 6.30574 | 33894 ft | 504 kts | 23° |
| 2026-05-06 17:13 | 44.16700 | 6.34904 | 33892 ft | 504 kts | 23° |
| 2026-05-06 17:14 | 44.22983 | 6.39240 | 33891 ft | 504 kts | 23° |
| 2026-05-06 17:14 | 44.29261 | 6.43579 | 33917 ft | 503 kts | 23° |
| 2026-05-06 17:15 | 44.35539 | 6.47933 | 33881 ft | 503 kts | 23° |
| 2026-05-06 17:15 | 44.41811 | 6.52289 | 33885 ft | 504 kts | 23° |
| 2026-05-06 17:16 | 44.48104 | 6.56662 | 33901 ft | 504 kts | 24° |
| 2026-05-06 17:16 | 44.54382 | 6.61051 | 33907 ft | 504 kts | 24° |
| 2026-05-06 17:17 | 44.60648 | 6.65439 | 33912 ft | 504 kts | 24° |
| 2026-05-06 17:17 | 44.66920 | 6.69834 | 33887 ft | 503 kts | 24° |
| 2026-05-06 17:18 | 44.73182 | 6.74237 | 33884 ft | 503 kts | 24° |
| 2026-05-06 17:18 | 44.79663 | 6.77730 | 33898 ft | 496 kts | 8° |
| 2026-05-06 17:19 | 44.86389 | 6.78617 | 33889 ft | 484 kts | 352° |
| 2026-05-06 17:19 | 44.93109 | 6.78177 | 33879 ft | 483 kts | 352° |
| 2026-05-06 17:20 | 44.99861 | 6.77739 | 33885 ft | 483 kts | 352° |
| 2026-05-06 17:20 | 45.06594 | 6.77302 | 33885 ft | 484 kts | 352° |
| 2026-05-06 17:21 | 45.13272 | 6.76849 | 33908 ft | 484 kts | 352° |
| 2026-05-06 17:21 | 45.20003 | 6.76392 | 33932 ft | 484 kts | 352° |
| 2026-05-06 17:22 | 45.26720 | 6.75953 | 33931 ft | 484 kts | 353° |
| 2026-05-06 17:22 | 45.33452 | 6.75518 | 33923 ft | 484 kts | 353° |
| 2026-05-06 17:23 | 45.40166 | 6.75068 | 33936 ft | 484 kts | 353° |
| 2026-05-06 17:23 | 45.46892 | 6.74604 | 33923 ft | 484 kts | 353° |
| 2026-05-06 17:24 | 45.53626 | 6.74146 | 33918 ft | 484 kts | 353° |
| 2026-05-06 17:24 | 45.60358 | 6.73692 | 33945 ft | 485 kts | 353° |
| 2026-05-06 17:25 | 45.67106 | 6.73232 | 33936 ft | 485 kts | 353° |
| 2026-05-06 17:25 | 45.73858 | 6.72766 | 33923 ft | 486 kts | 353° |
| 2026-05-06 17:26 | 45.80639 | 6.73153 | 33945 ft | 493 kts | 8° |
| 2026-05-06 17:26 | 45.87150 | 6.76277 | 33944 ft | 496 kts | 23° |
| 2026-05-06 17:27 | 45.93432 | 6.80399 | 33927 ft | 497 kts | 23° |
| 2026-05-06 17:27 | 45.99719 | 6.84505 | 33931 ft | 497 kts | 23° |
| 2026-05-06 17:28 | 46.06011 | 6.88620 | 33935 ft | 497 kts | 23° |
| 2026-05-06 17:28 | 46.12294 | 6.92763 | 33934 ft | 497 kts | 24° |
| 2026-05-06 17:29 | 46.18576 | 6.96918 | 33949 ft | 496 kts | 23° |
| 2026-05-06 17:29 | 46.24848 | 7.01065 | 33942 ft | 496 kts | 23° |
| 2026-05-06 17:30 | 46.31130 | 7.05218 | 33942 ft | 497 kts | 24° |
| 2026-05-06 17:30 | 46.37408 | 7.09387 | 33795 ft | 497 kts | 24° |
| 2026-05-06 17:30 | 46.40551 | 7.11484 | 33513 ft | 496 kts | 24° |
| 2026-05-06 17:31 | 46.43683 | 7.13577 | 33239 ft | 496 kts | 24° |
| 2026-05-06 17:31 | 46.46814 | 7.15667 | 32984 ft | 495 kts | 24° |
| 2026-05-06 17:31 | 46.49945 | 7.17755 | 32707 ft | 495 kts | 24° |
| 2026-05-06 17:31 | 46.53066 | 7.19840 | 32440 ft | 495 kts | 24° |
| 2026-05-06 17:32 | 46.56196 | 7.21938 | 32186 ft | 495 kts | 24° |
| 2026-05-06 17:32 | 46.59315 | 7.24031 | 31927 ft | 493 kts | 24° |
| 2026-05-06 17:32 | 46.62422 | 7.26116 | 31666 ft | 491 kts | 24° |
| 2026-05-06 17:32 | 46.65519 | 7.28197 | 31407 ft | 489 kts | 24° |
| 2026-05-06 17:33 | 46.68598 | 7.30272 | 31160 ft | 487 kts | 24° |
| 2026-05-06 17:33 | 46.71662 | 7.32343 | 30893 ft | 485 kts | 24° |
| 2026-05-06 17:33 | 46.74732 | 7.34419 | 30637 ft | 488 kts | 24° |
| 2026-05-06 17:33 | 46.77810 | 7.36501 | 30304 ft | 488 kts | 25° |
| 2026-05-06 17:34 | 46.80876 | 7.38596 | 29940 ft | 485 kts | 27° |
| 2026-05-06 17:34 | 46.83758 | 7.41117 | 29494 ft | 481 kts | 37° |
| 2026-05-06 17:34 | 46.86314 | 7.44203 | 29072 ft | 475 kts | 46° |
| 2026-05-06 17:34 | 46.88510 | 7.47755 | 28655 ft | 468 kts | 54° |
| 2026-05-06 17:35 | 46.90527 | 7.51476 | 28263 ft | 463 kts | 54° |
| 2026-05-06 17:35 | 46.92521 | 7.55151 | 27849 ft | 459 kts | 54° |
| 2026-05-06 17:35 | 46.94495 | 7.58784 | 27449 ft | 454 kts | 54° |
| 2026-05-06 17:36 | 46.98380 | 7.65944 | 26494 ft | 446 kts | 54° |
| 2026-05-06 17:36 | 47.00299 | 7.69489 | 25955 ft | 441 kts | 54° |
| 2026-05-06 17:36 | 47.01556 | 7.71814 | 25615 ft | 438 kts | 54° |
| 2026-05-06 17:36 | 47.04041 | 7.76412 | 24932 ft | 422 kts | 54° |
| 2026-05-06 17:37 | 47.05246 | 7.78641 | 24613 ft | 419 kts | 54° |
| 2026-05-06 17:37 | 47.07051 | 7.81983 | 24127 ft | 416 kts | 54° |
| 2026-05-06 17:37 | 47.08830 | 7.85288 | 23673 ft | 411 kts | 54° |
| 2026-05-06 17:37 | 47.10592 | 7.88577 | 23173 ft | 407 kts | 54° |
| 2026-05-06 17:38 | 47.12326 | 7.91821 | 22733 ft | 403 kts | 54° |
| 2026-05-06 17:38 | 47.13872 | 7.95225 | 22187 ft | 398 kts | 64° |
| 2026-05-06 17:38 | 47.15071 | 7.98856 | 21656 ft | 394 kts | 67° |
| 2026-05-06 17:38 | 47.16225 | 8.02486 | 21130 ft | 392 kts | 67° |
| 2026-05-06 17:39 | 47.17378 | 8.06095 | 20614 ft | 389 kts | 66° |
| 2026-05-06 17:39 | 47.18528 | 8.09681 | 20088 ft | 387 kts | 66° |
| 2026-05-06 17:39 | 47.19669 | 8.13250 | 19608 ft | 384 kts | 66° |
| 2026-05-06 17:39 | 47.21104 | 8.16550 | 19082 ft | 383 kts | 48° |
| 2026-05-06 17:40 | 47.23173 | 8.18966 | 18482 ft | 381 kts | 27° |
| 2026-05-06 17:40 | 47.25664 | 8.20209 | 17839 ft | 376 kts | 7° |
| 2026-05-06 17:40 | 47.28250 | 8.20181 | 17155 ft | 370 kts | 347° |
| 2026-05-06 17:40 | 47.30645 | 8.18969 | 16501 ft | 363 kts | 330° |
| 2026-05-06 17:41 | 47.32892 | 8.17292 | 15858 ft | 360 kts | 330° |
| 2026-05-06 17:41 | 47.35122 | 8.15628 | 15223 ft | 358 kts | 330° |
| 2026-05-06 17:41 | 47.37359 | 8.13958 | 14595 ft | 356 kts | 330° |
| 2026-05-06 17:41 | 47.39541 | 8.12331 | 13998 ft | 351 kts | 330° |
| 2026-05-06 17:42 | 47.41684 | 8.10735 | 13501 ft | 340 kts | 329° |
| 2026-05-06 17:42 | 47.43766 | 8.09180 | 12951 ft | 330 kts | 329° |
| 2026-05-06 17:42 | 47.45876 | 8.07942 | 12362 ft | 326 kts | 345° |
| 2026-05-06 17:42 | 47.48134 | 8.07778 | 11716 ft | 327 kts | 6° |
| 2026-05-06 17:43 | 47.50317 | 8.08661 | 11087 ft | 324 kts | 16° |
| 2026-05-06 17:43 | 47.52443 | 8.09732 | 10471 ft | 320 kts | 16° |
| 2026-05-06 17:43 | 47.54532 | 8.10798 | 9865 ft | 316 kts | 16° |
| 2026-05-06 17:43 | 47.56599 | 8.11856 | 9211 ft | 313 kts | 16° |
| 2026-05-06 17:44 | 47.58647 | 8.12901 | 8542 ft | 308 kts | 16° |
| 2026-05-06 17:44 | 47.60620 | 8.13931 | 8291 ft | 291 kts | 20° |
| 2026-05-06 17:44 | 47.62340 | 8.15384 | 7972 ft | 281 kts | 36° |
| 2026-05-06 17:44 | 47.63727 | 8.17364 | 7597 ft | 274 kts | 45° |
| 2026-05-06 17:45 | 47.65004 | 8.19407 | 7225 ft | 267 kts | 45° |
| 2026-05-06 17:45 | 47.66257 | 8.21403 | 6847 ft | 264 kts | 46° |
| 2026-05-06 17:45 | 47.67190 | 8.23733 | 6479 ft | 267 kts | 76° |
| 2026-05-06 17:45 | 47.67208 | 8.26433 | 6125 ft | 261 kts | 111° |
| 2026-05-06 17:46 | 47.66347 | 8.28680 | 6003 ft | 246 kts | 140° |
| 2026-05-06 17:46 | 47.65113 | 8.30428 | 5751 ft | 245 kts | 142° |
| 2026-05-06 17:46 | 47.63861 | 8.32159 | 5430 ft | 244 kts | 142° |
| 2026-05-06 17:46 | 47.62621 | 8.33867 | 5106 ft | 245 kts | 142° |
| 2026-05-06 17:47 | 47.61346 | 8.35615 | 4804 ft | 244 kts | 142° |
| 2026-05-06 17:47 | 47.60109 | 8.37304 | 4524 ft | 243 kts | 142° |
| 2026-05-06 17:47 | 47.58895 | 8.38963 | 4340 ft | 231 kts | 142° |
| 2026-05-06 17:47 | 47.57758 | 8.40527 | 4030 ft | 214 kts | 143° |
| 2026-05-06 17:48 | 47.56699 | 8.41981 | 3748 ft | 202 kts | 143° |
| 2026-05-06 17:48 | 47.55678 | 8.43383 | 3497 ft | 190 kts | 143° |
| 2026-05-06 17:48 | 47.54753 | 8.44652 | 3265 ft | 175 kts | 142° |
| 2026-05-06 17:48 | 47.53883 | 8.45843 | 3016 ft | 165 kts | 141° |
| 2026-05-06 17:49 | 47.53047 | 8.46986 | 2825 ft | 161 kts | 142° |
| 2026-05-06 17:49 | 47.52236 | 8.48096 | 2597 ft | 157 kts | 142° |
| 2026-05-06 17:49 | 47.51443 | 8.49182 | 2373 ft | 154 kts | 141° |
| 2026-05-06 17:49 | 47.50665 | 8.50246 | 2137 ft | 150 kts | 140° |
| 2026-05-06 17:50 | 47.49904 | 8.51287 | 1907 ft | 148 kts | 141° |
| 2026-05-06 17:50 | 47.49280 | 8.52139 | 1741 ft | 146 kts | 140° |
| 2026-05-06 17:50 | 47.48698 | 8.52932 | 1590 ft | 145 kts | 140° |
| 2026-05-06 17:50 | 47.47990 | 8.53911 | 1428 ft | 145 kts | 141° |
| 2026-05-06 17:51 | 47.47363 | 8.54754 | 1388 ft | 110 kts | 137° |
| 2026-05-06 17:51 | 47.46922 | 8.55362 | 1389 ft | 62 kts | 138° |
| 2026-05-06 17:51 | 47.46727 | 8.55611 | 1402 ft | 13 kts | 149° |
| 2026-05-06 17:51 | 47.46652 | 8.55656 | 1401 ft | 12 kts | 162° |
| 2026-05-06 17:52 | 47.46570 | 8.55689 | 1401 ft | 12 kts | 166° |
| 2026-05-06 17:52 | 47.46500 | 8.55709 | 1404 ft | 10 kts | 166° |
| 2026-05-06 17:52 | 47.46437 | 8.55732 | 1400 ft | 9 kts | 166° |
| 2026-05-06 17:52 | 47.46389 | 8.55756 | 1401 ft | 7 kts | 154° |
| 2026-05-06 17:53 | 47.46361 | 8.55787 | 1404 ft | 7 kts | 137° |
| 2026-05-06 17:53 | 47.46358 | 8.55791 | 1404 ft | 7 kts | 137° |
| 2026-05-06 17:53 | 47.46325 | 8.55835 | 1408 ft | 10 kts | 137° |
| 2026-05-06 17:54 | 47.46282 | 8.55895 | 1407 ft | 7 kts | 137° |
| 2026-05-06 17:54 | 47.46249 | 8.55939 | 1407 ft | 5 kts | 137° |
| 2026-05-06 17:54 | 47.46233 | 8.55961 | 1409 ft | 2 kts | 137° |
| 2026-05-06 17:54 | 47.46205 | 8.55995 | 1409 ft | 6 kts | 148° |
| 2026-05-06 17:55 | 47.46152 | 8.55998 | 1406 ft | 9 kts | 186° |
| 2026-05-06 17:55 | 47.46089 | 8.55988 | 1407 ft | 9 kts | 186° |
| 2026-05-06 17:55 | 47.46018 | 8.55977 | 1406 ft | 11 kts | 186° |
| 2026-05-06 17:55 | 47.45951 | 8.55959 | 1409 ft | 8 kts | 200° |
| 2026-05-06 17:56 | 47.45899 | 8.55932 | 1411 ft | 7 kts | 199° |
| 2026-05-06 17:56 | 47.45862 | 8.55913 | 1409 ft | 4 kts | 199° |
| 2026-05-06 17:56 | 47.45844 | 8.55903 | 1411 ft | 1 kts | 199° |
| 2026-05-06 17:56 | 47.45823 | 8.55892 | 1412 ft | 7 kts | 200° |
| 2026-05-06 17:57 | 47.45772 | 8.55876 | 1409 ft | 10 kts | 186° |
| 2026-05-06 17:57 | 47.45695 | 8.55863 | 1411 ft | 9 kts | 185° |
| 2026-05-06 17:57 | 47.45643 | 8.55821 | 1408 ft | 10 kts | 255° |
| 2026-05-06 17:57 | 47.45650 | 8.55704 | 1408 ft | 13 kts | 276° |
| 2026-05-06 17:58 | 47.45658 | 8.55591 | 1403 ft | 9 kts | 276° |
| 2026-05-06 17:58 | 47.45665 | 8.55479 | 1402 ft | 13 kts | 276° |
| 2026-05-06 17:58 | 47.45670 | 8.55354 | 1400 ft | 10 kts | 254° |
| 2026-05-06 17:58 | 47.45607 | 8.55349 | 1408 ft | 10 kts | 156° |
| 2026-05-06 17:59 | 47.45554 | 8.55386 | 1406 ft | 7 kts | 154° |
| 2026-05-06 17:59 | 47.45508 | 8.55417 | 1408 ft | 9 kts | 155° |
| 2026-05-06 17:59 | 47.45464 | 8.55447 | 1407 ft | 6 kts | 155° |
| 2026-05-06 17:59 | 47.45414 | 8.55482 | 1411 ft | 7 kts | 155° |
| 2026-05-06 18:00 | 47.45376 | 8.55508 | 1408 ft | 5 kts | 155° |
| 2026-05-06 18:00 | 47.45338 | 8.55534 | 1411 ft | 8 kts | 155° |
| 2026-05-06 18:00 | 47.45292 | 8.55566 | 1413 ft | 6 kts | 150° |
| 2026-05-06 18:00 | 47.45273 | 8.55621 | 1411 ft | 6 kts | 98° |
| 2026-05-06 18:01 | 47.45268 | 8.55674 | 1406 ft | 5 kts | 96° |
| 2026-05-06 18:01 | 47.45265 | 8.55723 | 1407 ft | 4 kts | 91° |
| 2026-05-06 18:01 | 47.45277 | 8.55743 | 1412 ft | 2 kts | 27° |
| 2026-05-06 18:01 | 47.45313 | 8.55750 | 1407 ft | 5 kts | 6° |
| 2026-05-06 18:02 | 47.45339 | 8.55754 | 1407 ft | 2 kts | 6° |
| 2026-05-06 18:02 | 47.45348 | 8.55755 | 1409 ft | 1 kts | 6° |
| 2026-05-06 18:02 | 47.45351 | 8.55756 | 1410 ft | 0 kts | 6° |
| 2026-05-06 18:04 | 47.45351 | 8.55755 | 1410 ft | 0 kts | 6° |